createdAt,value
2023-03-02T00:01:52.135Z,28.60
2023-03-02T00:04:46.444Z,24.52
2023-03-02T00:07:22.616Z,26.95
2023-03-02T00:09:49.108Z,29.95
2023-03-02T00:12:15.965Z,24.38
2023-03-02T00:14:42.761Z,25.65
2023-03-02T00:17:09.502Z,25.15
2023-03-02T00:19:36.480Z,22.00
2023-03-02T00:22:04.164Z,25.40
2023-03-02T00:24:30.786Z,30.63
2023-03-02T00:26:57.381Z,22.13
2023-03-02T00:29:23.979Z,25.70
2023-03-02T00:31:50.797Z,23.88
2023-03-02T00:34:17.520Z,20.95
2023-03-02T00:36:44.275Z,24.15
2023-03-02T00:39:10.965Z,20.70
2023-03-02T00:41:37.532Z,23.40
2023-03-02T00:44:04.224Z,21.55
2023-03-02T00:46:31.664Z,26.48
2023-03-02T00:48:58.987Z,26.95
2023-03-02T00:51:25.513Z,25.42
2023-03-02T00:53:52.123Z,26.63
2023-03-02T00:56:18.600Z,30.20
2023-03-02T00:58:48.966Z,37.28
2023-03-02T01:01:18.516Z,26.27
2023-03-02T01:03:48.552Z,27.00
2023-03-02T01:06:18.260Z,24.70
2023-03-02T01:08:45.044Z,31.33
2023-03-02T01:11:23.992Z,35.33
2023-03-02T01:13:51.099Z,39.42
2023-03-02T01:16:17.827Z,37.70
2023-03-02T01:18:44.511Z,30.75
2023-03-02T01:21:15.835Z,30.25
2023-03-02T01:23:43.055Z,37.78
2023-03-02T01:26:09.773Z,26.90
2023-03-02T01:28:36.391Z,26.70
2023-03-02T01:31:02.879Z,25.25
2023-03-02T01:33:29.490Z,27.10
2023-03-02T01:35:56.221Z,23.10
2023-03-02T01:38:23.028Z,25.85
2023-03-02T01:40:49.670Z,25.52
2023-03-02T01:43:16.773Z,29.45
2023-03-02T01:45:52.720Z,27.20
2023-03-02T01:48:31.502Z,21.65
2023-03-02T01:50:58.819Z,22.55
2023-03-02T01:53:31.365Z,29.13
2023-03-02T01:56:02.213Z,23.50
2023-03-02T01:58:34.352Z,22.92
2023-03-02T02:01:01.312Z,24.80
2023-03-02T02:03:30.526Z,24.73
2023-03-02T02:06:10.212Z,22.80
2023-03-02T02:08:38.917Z,27.85
2023-03-02T02:11:06.442Z,26.73
2023-03-02T02:13:33.109Z,30.88
2023-03-02T02:15:59.848Z,25.75
2023-03-02T02:18:26.999Z,25.50
2023-03-02T02:20:55.201Z,29.15
2023-03-02T02:25:54.055Z,33.55
2023-03-02T02:28:29.418Z,30.55
2023-03-02T02:31:09.077Z,31.38
2023-03-02T02:33:37.895Z,31.52
2023-03-02T02:36:15.466Z,24.52
2023-03-02T02:38:45.801Z,27.17
2023-03-02T02:41:20.519Z,30.50
2023-03-02T02:43:47.917Z,37.65
2023-03-02T02:46:14.566Z,26.07
2023-03-02T02:48:41.358Z,28.23
2023-03-02T02:51:10.842Z,32.17
2023-03-02T02:53:45.169Z,26.45
2023-03-02T02:56:13.648Z,29.02
2023-03-02T02:58:49.473Z,28.38
2023-03-02T03:01:19.104Z,30.35
2023-03-02T03:03:51.650Z,27.60
2023-03-02T03:06:20.515Z,31.38
2023-03-02T03:08:46.961Z,30.60
2023-03-02T03:11:23.369Z,28.75
2023-03-02T03:14:10.531Z,26.40
2023-03-02T03:16:39.917Z,28.58
2023-03-02T03:19:15.683Z,27.42
2023-03-02T03:21:42.287Z,28.58
2023-03-02T03:24:08.991Z,25.17
2023-03-02T03:26:35.727Z,25.98
2023-03-02T03:29:04.186Z,24.50
2023-03-02T03:31:30.984Z,27.63
2023-03-02T03:33:57.815Z,29.00
2023-03-02T03:36:24.481Z,28.88
2023-03-02T03:38:51.024Z,27.90
2023-03-02T03:41:17.705Z,30.02
2023-03-02T03:43:44.246Z,25.08
2023-03-02T03:46:11.559Z,23.75
2023-03-02T03:48:38.353Z,26.38
2023-03-02T03:51:05.739Z,29.20
2023-03-02T03:53:33.405Z,27.90
2023-03-02T03:56:00.545Z,28.83
2023-03-02T03:58:27.965Z,27.75
2023-03-02T04:00:54.670Z,26.88
2023-03-02T04:03:22.131Z,26.03
2023-03-02T04:05:49.525Z,26.30
2023-03-02T04:08:16.240Z,27.48
2023-03-02T04:10:42.884Z,25.95
2023-03-02T04:13:10.755Z,28.73
2023-03-02T04:15:40.081Z,28.10
2023-03-02T04:18:08.337Z,35.00
2023-03-02T04:20:35.978Z,26.90
2023-03-02T04:23:02.652Z,27.27
2023-03-02T04:25:30.494Z,33.05
2023-03-02T04:28:02.730Z,28.98
2023-03-02T04:30:34.813Z,30.67
2023-03-02T04:33:01.962Z,25.93
2023-03-02T04:35:29.991Z,27.52
2023-03-02T04:37:56.548Z,29.05
2023-03-02T04:40:23.282Z,31.05
2023-03-02T04:42:49.928Z,30.60
2023-03-02T04:45:16.656Z,22.50
2023-03-02T04:47:43.126Z,24.77
2023-03-02T04:50:13.645Z,29.45
2023-03-02T04:52:41.105Z,28.15
2023-03-02T04:55:08.193Z,25.45
2023-03-02T04:57:34.801Z,27.15
2023-03-02T05:00:01.417Z,26.67
2023-03-02T05:02:28.063Z,30.63
2023-03-02T05:04:54.649Z,28.35
2023-03-02T05:07:21.233Z,27.73
2023-03-02T05:09:47.795Z,27.85
2023-03-02T05:12:14.457Z,29.05
2023-03-02T05:14:41.001Z,26.63
2023-03-02T05:17:07.764Z,29.20
2023-03-02T05:19:34.416Z,30.17
2023-03-02T05:22:00.914Z,27.70
2023-03-02T05:24:27.518Z,32.00
2023-03-02T05:26:54.172Z,28.23
2023-03-02T05:29:20.792Z,27.67
2023-03-02T05:31:47.861Z,28.52
2023-03-02T05:34:16.427Z,25.75
2023-03-02T05:36:44.565Z,29.05
2023-03-02T05:39:11.308Z,26.42
2023-03-02T05:41:38.154Z,25.83
2023-03-02T05:44:05.766Z,28.08
2023-03-02T05:46:32.647Z,32.35
2023-03-02T05:48:59.393Z,24.83
2023-03-02T05:51:26.009Z,29.45
2023-03-02T05:53:52.565Z,22.45
2023-03-02T05:56:19.083Z,28.80
2023-03-02T05:58:45.558Z,29.70
2023-03-02T06:01:15.198Z,33.72
2023-03-02T06:03:42.913Z,34.00
2023-03-02T06:06:09.422Z,31.42
2023-03-02T06:08:36.055Z,29.50
2023-03-02T06:11:02.592Z,27.92
2023-03-02T06:13:29.535Z,26.23
2023-03-02T06:15:59.093Z,31.42
2023-03-02T06:18:25.639Z,31.92
2023-03-02T06:20:52.105Z,26.85
2023-03-02T06:23:18.874Z,27.67
2023-03-02T06:25:45.409Z,34.55
2023-03-02T06:28:11.923Z,38.80
2023-03-02T06:30:38.477Z,28.90
2023-03-02T06:33:05.024Z,31.98
2023-03-02T06:35:31.723Z,27.95
2023-03-02T06:37:58.352Z,30.35
2023-03-02T06:40:24.860Z,25.88
2023-03-02T06:42:51.440Z,26.05
2023-03-02T06:45:18.086Z,28.38
2023-03-02T06:47:44.746Z,33.97
2023-03-02T06:50:11.813Z,31.20
2023-03-02T06:52:38.378Z,29.80
2023-03-02T06:55:05.611Z,29.50
2023-03-02T06:57:32.243Z,26.13
2023-03-02T06:59:58.879Z,38.00
2023-03-02T07:02:25.350Z,33.85
2023-03-02T07:04:51.866Z,26.10
2023-03-02T07:07:18.445Z,38.30
2023-03-02T07:09:44.946Z,40.70
2023-03-02T07:12:11.485Z,33.60
2023-03-02T07:14:40.552Z,30.45
2023-03-02T07:17:07.283Z,28.02
2023-03-02T07:19:33.857Z,23.52
2023-03-02T07:22:00.407Z,34.13
2023-03-02T07:24:26.989Z,27.10
2023-03-02T07:26:53.496Z,33.00
2023-03-02T07:29:20.018Z,29.98
2023-03-02T07:31:46.564Z,30.17
2023-03-02T07:34:13.324Z,29.95
2023-03-02T07:36:39.936Z,37.30
2023-03-02T07:39:06.781Z,27.92
2023-03-02T07:41:33.711Z,38.25
2023-03-02T07:44:00.511Z,35.40
2023-03-02T07:46:27.144Z,39.63
2023-03-02T07:48:53.710Z,33.95
2023-03-02T07:51:20.333Z,32.03
2023-03-02T07:53:46.883Z,30.42
2023-03-02T07:56:13.533Z,32.45
2023-03-02T07:58:40.125Z,36.88
2023-03-02T08:01:06.673Z,31.75
2023-03-02T08:03:33.324Z,34.97
2023-03-02T08:06:12.811Z,43.63
2023-03-02T08:08:39.745Z,34.30
2023-03-02T08:11:08.342Z,36.13
2023-03-02T08:13:34.888Z,42.30
2023-03-02T08:16:03.175Z,33.40
2023-03-02T08:18:30.882Z,41.13
2023-03-02T08:20:58.075Z,40.40
2023-03-02T08:23:25.715Z,35.50
2023-03-02T08:25:53.624Z,33.38
2023-03-02T08:28:21.916Z,31.05
2023-03-02T08:30:59.598Z,45.10
2023-03-02T08:33:27.704Z,38.65
2023-03-02T08:35:59.253Z,40.40
2023-03-02T08:38:27.007Z,33.70
2023-03-02T08:40:54.143Z,30.70
2023-03-02T08:43:22.274Z,40.60
2023-03-02T08:48:20.626Z,44.72
2023-03-02T08:51:12.559Z,36.90
2023-03-02T08:53:41.644Z,25.20
2023-03-02T08:56:29.450Z,32.83
2023-03-02T09:01:27.401Z,26.50
2023-03-02T09:03:54.193Z,30.60
2023-03-02T09:06:21.170Z,33.28
2023-03-02T09:08:48.223Z,29.52
2023-03-02T09:11:15.345Z,28.45
2023-03-02T09:13:42.675Z,35.38
2023-03-02T09:16:10.006Z,30.17
2023-03-02T09:18:36.854Z,31.20
2023-03-02T09:21:04.222Z,33.83
2023-03-02T09:23:31.616Z,34.93
2023-03-02T09:25:58.503Z,34.10
2023-03-02T09:28:25.339Z,28.85
2023-03-02T09:30:54.714Z,31.23
2023-03-02T09:33:21.604Z,29.05
2023-03-02T09:35:48.260Z,22.73
2023-03-02T09:38:15.290Z,34.80
2023-03-02T09:40:48.186Z,30.80
2023-03-02T09:43:26.939Z,30.40
2023-03-02T09:46:02.519Z,28.00
2023-03-02T09:48:40.574Z,30.80
2023-03-02T09:53:44.269Z,26.88
2023-03-02T09:56:16.514Z,27.05
2023-03-02T09:58:49.564Z,35.72
2023-03-02T10:01:26.921Z,29.55
2023-03-02T10:04:06.991Z,24.48
2023-03-02T10:06:33.934Z,28.50
2023-03-02T10:09:00.653Z,27.95
2023-03-02T10:12:05.423Z,30.77
2023-03-02T10:14:39.421Z,25.23
2023-03-02T10:17:23.013Z,29.55
2023-03-02T10:20:00.486Z,27.98
2023-03-02T10:22:36.056Z,24.55
2023-03-02T10:25:16.520Z,25.20
2023-03-02T10:27:48.651Z,25.08
2023-03-02T10:30:25.564Z,27.90
2023-03-02T10:32:55.043Z,28.90
2023-03-02T10:35:24.626Z,27.48
2023-03-02T10:37:55.353Z,27.88
2023-03-02T10:40:45.988Z,28.77
2023-03-02T10:43:20.373Z,26.50
2023-03-02T10:45:59.098Z,27.58
2023-03-02T10:48:25.795Z,24.90
2023-03-02T10:50:57.510Z,22.77
2023-03-02T10:53:24.922Z,25.23
2023-03-02T10:55:53.961Z,27.75
2023-03-02T10:58:32.841Z,22.33
2023-03-02T11:01:05.810Z,31.25
2023-03-02T11:03:33.140Z,27.58
2023-03-02T11:06:16.355Z,26.87
2023-03-02T11:08:42.991Z,27.63
2023-03-02T11:11:22.881Z,28.38
2023-03-02T11:13:49.725Z,30.90
2023-03-02T11:16:19.216Z,38.60
2023-03-02T11:18:54.641Z,22.23
2023-03-02T11:21:33.115Z,25.23
2023-03-02T11:24:10.327Z,26.50
2023-03-02T11:26:52.118Z,25.30
2023-03-02T11:29:25.469Z,30.23
2023-03-02T11:31:59.941Z,22.02
2023-03-02T11:34:55.470Z,24.02
2023-03-02T11:37:45.112Z,26.00
2023-03-02T11:40:26.458Z,25.50
2023-03-02T11:42:56.967Z,22.33
2023-03-02T11:45:36.363Z,19.52
2023-03-02T11:48:05.653Z,23.55
2023-03-02T11:50:37.216Z,26.38
2023-03-02T11:53:11.720Z,20.98
2023-03-02T11:55:44.431Z,21.60
2023-03-02T11:58:18.775Z,19.33
2023-03-02T12:00:47.534Z,19.25
2023-03-02T12:03:16.682Z,20.63
2023-03-02T12:05:51.071Z,24.38
2023-03-02T12:08:20.446Z,23.73
2023-03-02T12:11:00.419Z,18.63
2023-03-02T12:13:40.795Z,26.95
2023-03-02T12:16:34.794Z,29.30
2023-03-02T12:19:16.582Z,28.00
2023-03-02T12:22:07.308Z,21.10
2023-03-02T12:24:37.009Z,23.25
2023-03-02T12:27:07.907Z,21.33
2023-03-02T12:29:49.762Z,20.65
2023-03-02T12:32:19.116Z,22.65
2023-03-02T12:34:54.917Z,22.23
2023-03-02T12:37:24.242Z,21.58
2023-03-02T12:40:12.742Z,19.35
2023-03-02T12:43:12.833Z,20.90
2023-03-02T12:46:07.074Z,19.20
2023-03-02T12:48:52.719Z,20.38
2023-03-02T12:51:25.872Z,22.15
2023-03-02T12:54:06.804Z,20.27
2023-03-02T12:56:34.221Z,18.30
2023-03-02T12:59:00.985Z,18.27
2023-03-02T13:01:30.438Z,22.60
2023-03-02T13:03:57.801Z,31.23
2023-03-02T13:06:29.800Z,21.38
2023-03-02T13:08:59.162Z,18.25
2023-03-02T13:11:33.013Z,21.17
2023-03-02T13:14:01.724Z,19.90
2023-03-02T13:16:31.375Z,22.13
2023-03-02T13:19:01.172Z,19.95
2023-03-02T13:21:34.040Z,20.67
2023-03-02T13:24:01.747Z,20.73
2023-03-02T13:26:34.523Z,18.52
2023-03-02T13:29:06.046Z,18.75
2023-03-02T13:31:34.413Z,20.20
2023-03-02T13:34:01.600Z,17.70
2023-03-02T13:36:36.607Z,19.03
2023-03-02T13:39:05.858Z,17.08
2023-03-02T13:41:35.095Z,16.83
2023-03-02T13:44:19.951Z,16.55
2023-03-02T13:46:47.179Z,17.73
2023-03-02T13:49:14.088Z,16.30
2023-03-02T13:51:47.086Z,25.50
2023-03-02T13:54:22.500Z,21.63
2023-03-02T13:56:50.368Z,17.38
2023-03-02T13:59:19.154Z,20.85
2023-03-02T14:01:46.220Z,24.13
2023-03-02T14:04:15.185Z,19.77
2023-03-02T14:06:43.411Z,13.18
2023-03-02T14:09:10.113Z,22.00
2023-03-02T14:11:40.282Z,21.20
2023-03-02T14:14:07.826Z,17.00
2023-03-02T14:16:34.689Z,15.52
2023-03-02T14:19:02.077Z,16.42
2023-03-02T14:21:29.085Z,19.43
2023-03-02T14:23:56.103Z,17.20
2023-03-02T14:26:34.177Z,22.48
2023-03-02T14:29:12.537Z,18.38
2023-03-02T14:31:39.066Z,18.67
2023-03-02T14:34:05.605Z,19.63
2023-03-02T14:36:34.096Z,21.45
2023-03-02T14:39:05.645Z,18.52
2023-03-02T14:41:38.327Z,19.42
2023-03-02T14:44:10.777Z,15.23
2023-03-02T14:46:37.394Z,19.33
2023-03-02T14:49:04.050Z,15.38
2023-03-02T14:51:34.908Z,19.83
2023-03-02T14:54:05.646Z,14.70
2023-03-02T14:56:32.641Z,14.80
2023-03-02T14:59:00.085Z,15.93
2023-03-02T15:01:26.754Z,13.52
2023-03-02T15:03:53.479Z,14.80
2023-03-02T15:06:28.685Z,19.48
2023-03-02T15:08:57.572Z,20.73
2023-03-02T15:11:25.170Z,22.05
2023-03-02T15:13:51.759Z,23.10
2023-03-02T15:16:18.486Z,23.40
2023-03-02T15:18:45.015Z,26.00
2023-03-02T15:21:16.971Z,30.67
2023-03-02T15:23:44.249Z,26.60
2023-03-02T15:26:12.091Z,28.87
2023-03-02T15:28:39.242Z,29.63
2023-03-02T15:31:07.471Z,25.40
2023-03-02T15:36:00.670Z,32.83
2023-03-02T15:38:27.387Z,27.23
2023-03-02T15:40:53.867Z,29.00
2023-03-02T15:43:20.489Z,23.27
2023-03-02T15:45:46.989Z,27.63
2023-03-02T15:48:13.773Z,29.35
2023-03-02T15:50:40.758Z,31.42
2023-03-02T15:53:07.450Z,33.65
2023-03-02T15:55:33.976Z,33.67
2023-03-02T15:58:00.536Z,28.27
2023-03-02T16:00:27.280Z,35.97
2023-03-02T16:02:53.916Z,33.72
2023-03-02T16:05:20.519Z,35.67
2023-03-02T16:07:47.026Z,31.67
2023-03-02T16:10:13.605Z,37.75
2023-03-02T16:12:40.145Z,36.63
2023-03-02T16:15:08.326Z,33.00
2023-03-02T16:17:34.879Z,40.30
2023-03-02T16:20:01.463Z,42.58
2023-03-02T16:22:28.083Z,29.17
2023-03-02T16:24:54.597Z,36.78
2023-03-02T16:27:21.096Z,32.25
2023-03-02T16:29:47.581Z,43.03
2023-03-02T16:32:14.236Z,39.47
2023-03-02T16:34:40.788Z,36.92
2023-03-02T16:37:07.326Z,32.47
2023-03-02T16:39:33.891Z,35.35
2023-03-02T16:42:00.502Z,42.75
2023-03-02T16:44:27.030Z,43.22
2023-03-02T16:46:54.803Z,40.35
2023-03-02T16:49:22.937Z,39.38
2023-03-02T16:51:49.496Z,38.97
2023-03-02T16:54:16.991Z,37.63
2023-03-02T16:56:43.964Z,38.08
2023-03-02T16:59:11.190Z,33.55
2023-03-02T17:01:37.831Z,36.50
2023-03-02T17:04:06.017Z,41.40
2023-03-02T17:06:32.893Z,46.08
2023-03-02T17:08:59.613Z,43.45
2023-03-02T17:11:26.236Z,45.03
2023-03-02T17:13:52.725Z,43.78
2023-03-02T17:16:19.208Z,40.45
2023-03-02T17:18:45.749Z,46.90
2023-03-02T17:21:16.802Z,46.45
2023-03-02T17:23:43.650Z,45.47
2023-03-02T17:26:10.251Z,46.25
2023-03-02T17:28:36.758Z,46.80
2023-03-02T17:31:04.476Z,42.15
2023-03-02T17:33:31.344Z,60.97
2023-03-02T17:35:57.816Z,47.72
2023-03-02T17:38:24.380Z,48.45
2023-03-02T17:40:50.903Z,49.20
2023-03-02T17:43:17.596Z,56.58
2023-03-02T17:45:44.177Z,51.50
2023-03-02T17:48:10.671Z,48.83
2023-03-02T17:50:37.270Z,44.25
2023-03-02T17:53:03.900Z,43.55
2023-03-02T17:55:30.758Z,49.92
2023-03-02T17:57:57.528Z,51.60
2023-03-02T18:00:24.795Z,42.35
2023-03-02T18:02:52.488Z,55.47
2023-03-02T18:05:19.352Z,53.05
2023-03-02T18:07:45.836Z,46.92
2023-03-02T18:10:13.743Z,52.53
2023-03-02T18:12:40.542Z,58.58
2023-03-02T18:15:07.770Z,47.63
2023-03-02T18:17:34.269Z,49.63
2023-03-02T18:20:00.828Z,60.35
2023-03-02T18:22:27.352Z,47.45
2023-03-02T18:24:53.816Z,52.38
2023-03-02T18:27:20.514Z,52.83
2023-03-02T18:29:47.053Z,54.97
2023-03-02T18:32:14.246Z,48.72
2023-03-02T18:34:40.978Z,50.40
2023-03-02T18:37:07.607Z,58.80
2023-03-02T18:39:34.776Z,57.15
2023-03-02T18:42:01.289Z,57.00
2023-03-02T18:44:27.828Z,55.63
2023-03-02T18:46:54.878Z,44.85
2023-03-02T18:49:21.398Z,43.53
2023-03-02T18:51:48.000Z,54.97
2023-03-02T18:54:14.681Z,52.63
2023-03-02T18:56:41.333Z,48.17
2023-03-02T18:59:07.921Z,46.65
2023-03-02T19:01:34.401Z,48.53
2023-03-02T19:04:00.951Z,51.60
2023-03-02T19:06:28.244Z,59.17
2023-03-02T19:08:55.084Z,48.15
2023-03-02T19:11:21.682Z,51.97
2023-03-02T19:13:48.506Z,62.67
2023-03-02T19:16:15.090Z,52.60
2023-03-02T19:18:42.348Z,45.10
2023-03-02T19:21:09.004Z,42.05
2023-03-02T19:23:35.681Z,40.60
2023-03-02T19:26:02.315Z,54.58
2023-03-02T19:28:28.919Z,49.45
2023-03-02T19:30:55.543Z,61.72
2023-03-02T19:33:22.077Z,52.50
2023-03-02T19:35:48.694Z,51.22
2023-03-02T19:38:15.196Z,42.65
2023-03-02T19:40:41.881Z,43.17
2023-03-02T19:43:08.381Z,53.92
2023-03-02T19:45:35.072Z,48.05
2023-03-02T19:48:02.690Z,45.67
2023-03-02T19:50:29.754Z,52.30
2023-03-02T19:52:56.769Z,51.05
2023-03-02T19:55:24.281Z,50.58
2023-03-02T19:57:51.360Z,47.72
2023-03-02T20:00:18.719Z,36.30
2023-03-02T20:02:46.465Z,43.03
2023-03-02T20:05:13.431Z,45.03
2023-03-02T20:07:42.135Z,50.50
2023-03-02T20:10:11.147Z,43.17
2023-03-02T20:12:37.781Z,63.92
2023-03-02T20:15:06.089Z,54.50
2023-03-02T20:17:32.713Z,56.78
2023-03-02T20:19:59.279Z,50.95
2023-03-02T20:22:25.884Z,49.38
2023-03-02T20:24:52.749Z,44.05
2023-03-02T20:27:19.282Z,45.10
2023-03-02T20:29:45.896Z,46.58
2023-03-02T20:32:13.511Z,49.30
2023-03-02T20:34:41.736Z,39.60
2023-03-02T20:37:08.584Z,44.13
2023-03-02T20:39:38.192Z,55.95
2023-03-02T20:42:06.269Z,48.28
2023-03-02T20:47:02.702Z,41.60
2023-03-02T20:49:30.038Z,41.38
2023-03-02T20:51:58.621Z,54.45
2023-03-02T20:54:32.033Z,45.22
2023-03-02T20:56:58.829Z,45.70
2023-03-02T20:59:26.476Z,44.63
2023-03-02T21:01:53.546Z,47.53
2023-03-02T21:04:20.848Z,49.22
2023-03-02T21:06:47.636Z,46.03
2023-03-02T21:09:14.887Z,36.20
2023-03-02T21:11:41.447Z,47.13
2023-03-02T21:14:08.206Z,38.60
2023-03-02T21:16:38.714Z,49.10
2023-03-02T21:19:07.841Z,44.65
2023-03-02T21:21:41.456Z,43.70
2023-03-02T21:24:10.611Z,43.17
2023-03-02T21:26:37.900Z,48.35
2023-03-02T21:29:05.855Z,45.45
2023-03-02T21:31:32.904Z,41.38
2023-03-02T21:33:59.633Z,46.05
2023-03-02T21:36:26.754Z,51.17
2023-03-02T21:38:53.292Z,48.45
2023-03-02T21:41:19.939Z,36.58
2023-03-02T21:43:46.480Z,57.97
2023-03-02T21:46:15.729Z,37.80
2023-03-02T21:48:42.392Z,43.08
2023-03-02T21:51:11.467Z,47.30
2023-03-02T21:53:37.986Z,49.53
2023-03-02T21:56:04.954Z,52.58
2023-03-02T21:58:31.487Z,47.85
2023-03-02T22:00:58.049Z,45.17
2023-03-02T22:03:24.685Z,54.25
2023-03-02T22:05:51.305Z,49.58
2023-03-02T22:08:20.178Z,47.72
2023-03-02T22:10:49.643Z,38.28
2023-03-02T22:13:27.016Z,45.65
2023-03-02T22:16:11.451Z,41.60
2023-03-02T22:18:38.090Z,37.45
2023-03-02T22:21:38.477Z,30.52
2023-03-02T22:24:11.199Z,40.15
2023-03-02T22:26:44.098Z,39.53
2023-03-02T22:29:18.829Z,36.90
2023-03-02T22:31:47.693Z,36.20
2023-03-02T22:34:20.427Z,42.97
2023-03-02T22:36:47.290Z,37.63
2023-03-02T22:39:30.524Z,36.15
2023-03-02T22:42:09.122Z,39.42
2023-03-02T22:44:35.942Z,35.15
2023-03-02T22:47:12.300Z,32.00
2023-03-02T22:49:38.918Z,41.38
2023-03-02T22:52:15.757Z,40.50
2023-03-02T22:54:42.240Z,32.30
2023-03-02T22:57:29.447Z,27.83
2023-03-02T23:00:07.693Z,34.10
2023-03-02T23:02:40.329Z,33.50
2023-03-02T23:05:39.421Z,32.22
2023-03-02T23:08:25.568Z,36.88
2023-03-02T23:10:54.215Z,31.42
2023-03-02T23:13:25.090Z,37.55
2023-03-02T23:15:53.044Z,37.90
2023-03-02T23:18:23.912Z,42.72
2023-03-02T23:20:51.588Z,38.00
2023-03-02T23:23:19.242Z,35.42
2023-03-02T23:25:46.540Z,34.13
2023-03-02T23:28:13.052Z,37.83
2023-03-02T23:30:39.924Z,37.25
2023-03-02T23:33:07.283Z,36.23
2023-03-02T23:35:34.446Z,41.58
2023-03-02T23:38:01.007Z,35.35
2023-03-02T23:40:28.774Z,34.38
2023-03-02T23:42:55.404Z,36.83
2023-03-02T23:45:21.913Z,34.40
2023-03-02T23:47:48.410Z,32.63
2023-03-02T23:50:14.986Z,35.95
2023-03-02T23:52:41.781Z,32.92
2023-03-02T23:55:09.308Z,39.35
2023-03-02T23:57:35.838Z,36.05
